Time,TemperatureF,DewpointF,PressureIn,WindDirection,WindDirectionDegrees,WindSpeedMPH,WindSpeedGustMPH,Humidity,HourlyPrecipIn,Conditions,Clouds,dailyrainin,SoftwareType,DateUTC
2013-11-21 00:00:00,32.0,29.7,29.54,WSW,252,0.0,8.0,91,0.00,,,0.00,Wunderground v.1.15,2013-11-21 07:00:00,
2013-11-21 00:05:00,31.9,29.6,29.54,WSW,252,0.0,8.0,91,0.00,,,0.00,Wunderground v.1.15,2013-11-21 07:05:00,
2013-11-21 00:10:00,31.8,29.5,29.53,WSW,252,0.0,8.0,91,0.00,,,0.00,Wunderground v.1.15,2013-11-21 07:10:00,
2013-11-21 00:20:00,31.7,29.6,29.54,WSW,252,0.0,8.0,92,0.00,,,0.00,Wunderground v.1.15,2013-11-21 07:20:00,
2013-11-21 00:25:00,31.6,29.5,29.53,WSW,252,0.0,8.0,92,0.00,,,0.00,Wunderground v.1.15,2013-11-21 07:25:00,
2013-11-21 00:30:00,31.6,29.5,29.53,WSW,252,0.0,8.0,92,0.00,,,0.00,Wunderground v.1.15,2013-11-21 07:30:00,
2013-11-21 00:35:00,31.5,29.4,29.54,WSW,252,0.0,8.0,92,0.00,,,0.00,Wunderground v.1.15,2013-11-21 07:35:00,
2013-11-21 00:40:00,31.5,29.4,29.54,WSW,252,0.0,8.0,92,0.00,,,0.00,Wunderground v.1.15,2013-11-21 07:40:00,
2013-11-21 00:45:00,31.5,29.4,29.54,WSW,252,0.0,8.0,92,0.00,,,0.00,Wunderground v.1.15,2013-11-21 07:45:00,
2013-11-21 00:50:00,31.4,29.3,29.53,WSW,252,0.0,8.0,92,0.00,,,0.00,Wunderground v.1.15,2013-11-21 07:50:00,
2013-11-21 00:55:00,31.4,29.6,29.54,WSW,252,0.0,8.0,93,0.00,,,0.00,Wunderground v.1.15,2013-11-21 07:55:00,
2013-11-21 01:00:00,31.4,29.6,29.54,WSW,252,0.0,8.0,93,0.00,,,0.00,Wunderground v.1.15,2013-11-21 08:00:00,
2013-11-21 01:05:00,31.4,29.6,29.54,WSW,252,0.0,8.0,93,0.00,,,0.00,Wunderground v.1.15,2013-11-21 08:05:00,
2013-11-21 01:10:00,31.3,29.5,29.53,WSW,252,0.0,8.0,93,0.00,,,0.00,Wunderground v.1.15,2013-11-21 08:10:00,
2013-11-21 01:15:00,31.3,29.5,29.54,WSW,252,0.0,8.0,93,0.00,,,0.00,Wunderground v.1.15,2013-11-21 08:15:00,
2013-11-21 01:20:00,31.3,29.5,29.54,WSW,252,0.0,8.0,93,0.00,,,0.00,Wunderground v.1.15,2013-11-21 08:20:00,
2013-11-21 01:25:00,31.3,29.5,29.54,WSW,252,0.0,8.0,93,0.00,,,0.00,Wunderground v.1.15,2013-11-21 08:25:00,
2013-11-21 01:30:00,31.3,29.5,29.54,WSW,252,0.0,8.0,93,0.00,,,0.00,Wunderground v.1.15,2013-11-21 08:30:00,
2013-11-21 01:35:00,31.3,29.5,29.54,WSW,252,0.0,8.0,93,0.00,,,0.00,Wunderground v.1.15,2013-11-21 08:35:00,
2013-11-21 01:40:00,31.3,29.5,29.54,WSW,252,0.0,8.0,93,0.00,,,0.00,Wunderground v.1.15,2013-11-21 08:40:00,
2013-11-21 01:45:00,31.3,29.5,29.54,WSW,252,0.0,8.0,93,0.00,,,0.00,Wunderground v.1.15,2013-11-21 08:45:00,
2013-11-21 01:50:00,31.2,29.4,29.54,WSW,252,0.0,8.0,93,0.00,,,0.00,Wunderground v.1.15,2013-11-21 08:50:00,
2013-11-21 01:55:00,31.2,29.4,29.54,WSW,252,0.0,8.0,93,0.00,,,0.00,Wunderground v.1.15,2013-11-21 08:55:00,
2013-11-21 02:00:00,31.2,29.4,29.55,WSW,252,0.0,8.0,93,0.00,,,0.00,Wunderground v.1.15,2013-11-21 09:00:00,
2013-11-21 02:10:00,31.2,29.1,29.55,WSW,252,0.0,8.0,92,0.00,,,0.00,Wunderground v.1.15,2013-11-21 09:10:00,
2013-11-21 02:15:00,31.2,29.1,29.55,WSW,252,0.0,8.0,92,0.00,,,0.00,Wunderground v.1.15,2013-11-21 09:15:00,
2013-11-21 02:30:00,31.2,29.4,29.55,WSW,252,0.0,8.0,93,0.00,,,0.00,Wunderground v.1.15,2013-11-21 09:30:00,
2013-11-21 02:35:00,31.1,29.3,29.56,WSW,252,0.0,8.0,93,0.00,,,0.00,Wunderground v.1.15,2013-11-21 09:35:00,
2013-11-21 02:40:00,31.1,29.3,29.56,WSW,252,0.0,8.0,93,0.00,,,0.00,Wunderground v.1.15,2013-11-21 09:40:00,
2013-11-21 02:45:00,31.1,29.3,29.56,WSW,252,0.0,8.0,93,0.00,,,0.00,Wunderground v.1.15,2013-11-21 09:45:00,
2013-11-21 02:50:00,31.1,29.3,29.56,WSW,252,0.0,8.0,93,0.00,,,0.00,Wunderground v.1.15,2013-11-21 09:50:00,
2013-11-21 02:55:00,31.1,29.3,29.56,WSW,252,0.0,8.0,93,0.00,,,0.00,Wunderground v.1.15,2013-11-21 09:55:00,
2013-11-21 03:00:00,31.1,29.3,29.56,WSW,252,0.0,8.0,93,0.00,,,0.00,Wunderground v.1.15,2013-11-21 10:00:00,
2013-11-21 03:05:00,31.1,29.3,29.56,WSW,252,0.0,8.0,93,0.00,,,0.00,Wunderground v.1.15,2013-11-21 10:05:00,
2013-11-21 03:15:00,31.1,29.3,29.57,WSW,252,0.0,8.0,93,0.00,,,0.00,Wunderground v.1.15,2013-11-21 10:15:00,
2013-11-21 03:20:00,31.1,29.6,29.57,WSW,252,0.0,8.0,94,0.00,,,0.00,Wunderground v.1.15,2013-11-21 10:20:00,
2013-11-21 03:25:00,31.1,29.6,29.56,WSW,252,0.0,8.0,94,0.00,,,0.00,Wunderground v.1.15,2013-11-21 10:25:00,
2013-11-21 03:30:00,31.0,29.5,29.56,WSW,252,0.0,8.0,94,0.00,,,0.00,Wunderground v.1.15,2013-11-21 10:30:00,
2013-11-21 03:40:00,30.9,29.4,29.57,WSW,252,0.0,8.0,94,0.00,,,0.00,Wunderground v.1.15,2013-11-21 10:40:00,
2013-11-21 03:45:00,30.8,29.5,29.57,WSW,252,0.0,8.0,95,0.00,,,0.00,Wunderground v.1.15,2013-11-21 10:45:00,
2013-11-21 03:50:00,30.8,29.5,29.57,WSW,252,0.0,8.0,95,0.00,,,0.00,Wunderground v.1.15,2013-11-21 10:50:00,
2013-11-21 04:00:00,30.7,29.4,29.57,ENE,78,0.0,8.0,95,0.00,,,0.00,Wunderground v.1.15,2013-11-21 11:00:00,
2013-11-21 04:05:00,30.6,29.3,29.57,ENE,78,0.0,8.0,95,0.00,,,0.00,Wunderground v.1.15,2013-11-21 11:05:00,
2013-11-21 04:10:00,30.5,29.2,29.57,ENE,65,0.0,8.0,95,0.00,,,0.00,Wunderground v.1.15,2013-11-21 11:10:00,
2013-11-21 04:15:00,30.4,29.1,29.58,ENE,64,0.0,8.0,95,0.00,,,0.00,Wunderground v.1.15,2013-11-21 11:15:00,
2013-11-21 04:20:00,30.3,29.0,29.58,ENE,64,0.0,8.0,95,0.00,,,0.00,Wunderground v.1.15,2013-11-21 11:20:00,
2013-11-21 04:30:00,30.2,28.9,29.58,ENE,64,0.0,8.0,95,0.00,,,0.00,Wunderground v.1.15,2013-11-21 11:30:00,
2013-11-21 04:35:00,30.1,28.8,29.58,ENE,64,0.0,8.0,95,0.00,,,0.00,Wunderground v.1.15,2013-11-21 11:35:00,
2013-11-21 04:40:00,30.1,28.8,29.58,ENE,64,0.0,8.0,95,0.00,,,0.00,Wunderground v.1.15,2013-11-21 11:40:00,
2013-11-21 04:45:00,30.1,28.8,29.59,ENE,64,0.0,8.0,95,0.00,,,0.00,Wunderground v.1.15,2013-11-21 11:45:00,
2013-11-21 04:50:00,30.1,28.8,29.58,ENE,64,0.0,8.0,95,0.00,,,0.00,Wunderground v.1.15,2013-11-21 11:50:00,
2013-11-21 04:55:00,30.1,28.8,29.58,ENE,64,0.0,8.0,95,0.00,,,0.00,Wunderground v.1.15,2013-11-21 11:55:00,
2013-11-21 05:00:00,30.2,28.9,29.59,ENE,64,0.0,8.0,95,0.00,,,0.00,Wunderground v.1.15,2013-11-21 12:00:00,
2013-11-21 05:05:00,30.0,28.7,29.58,ENE,64,0.0,8.0,95,0.00,,,0.00,Wunderground v.1.15,2013-11-21 12:05:00,
2013-11-21 05:10:00,29.9,28.6,29.58,ENE,64,0.0,8.0,95,0.00,,,0.00,Wunderground v.1.15,2013-11-21 12:10:00,
2013-11-21 05:15:00,29.8,28.5,29.58,ENE,64,0.0,8.0,95,0.00,,,0.00,Wunderground v.1.15,2013-11-21 12:15:00,
2013-11-21 05:20:00,29.8,28.5,29.58,ENE,64,0.0,8.0,95,0.00,,,0.00,Wunderground v.1.15,2013-11-21 12:20:00,
2013-11-21 05:30:00,29.8,28.5,29.59,ENE,64,0.0,8.0,95,0.00,,,0.00,Wunderground v.1.15,2013-11-21 12:30:00,
2013-11-21 05:35:00,29.9,28.6,29.59,East,94,0.0,8.0,95,0.00,,,0.00,Wunderground v.1.15,2013-11-21 12:35:00,
2013-11-21 05:40:00,29.8,28.5,29.59,East,94,0.0,8.0,95,0.00,,,0.00,Wunderground v.1.15,2013-11-21 12:40:00,
2013-11-21 05:45:00,29.7,28.4,29.60,East,94,0.0,8.0,95,0.00,,,0.00,Wunderground v.1.15,2013-11-21 12:45:00,
2013-11-21 05:50:00,29.7,28.4,29.60,ENE,65,0.0,8.0,95,0.00,,,0.00,Wunderground v.1.15,2013-11-21 12:50:00,
2013-11-21 05:55:00,29.6,28.3,29.60,ESE,123,0.0,8.0,95,0.00,,,0.00,Wunderground v.1.15,2013-11-21 12:55:00,
2013-11-21 06:00:00,29.6,28.3,29.60,NE,50,0.0,8.0,95,0.00,,,0.00,Wunderground v.1.15,2013-11-21 13:00:00,
2013-11-21 06:10:00,29.5,28.2,29.60,NE,53,0.0,8.0,95,0.00,,,0.00,Wunderground v.1.15,2013-11-21 13:10:00,
2013-11-21 06:20:00,29.6,28.6,29.60,NE,46,0.0,8.0,96,0.00,,,0.00,Wunderground v.1.15,2013-11-21 13:20:00,
2013-11-21 06:25:00,29.6,28.6,29.60,NE,47,0.0,8.0,96,0.00,,,0.00,Wunderground v.1.15,2013-11-21 13:25:00,
2013-11-21 06:30:00,29.5,28.5,29.60,NE,55,0.0,8.0,96,0.00,,,0.00,Wunderground v.1.15,2013-11-21 13:30:00,
2013-11-21 06:35:00,29.5,28.5,29.61,ENE,69,0.0,8.0,96,0.00,,,0.00,Wunderground v.1.15,2013-11-21 13:35:00,
2013-11-21 06:45:00,29.3,28.3,29.62,ENE,67,0.0,8.0,96,0.00,,,0.00,Wunderground v.1.15,2013-11-21 13:45:00,
2013-11-21 06:50:00,29.3,28.3,29.62,East,81,0.0,8.0,96,0.00,,,0.00,Wunderground v.1.15,2013-11-21 13:50:00,
2013-11-21 06:55:00,29.2,28.2,29.63,East,92,0.0,8.0,96,0.00,,,0.00,Wunderground v.1.15,2013-11-21 13:55:00,
2013-11-21 07:00:00,29.2,28.2,29.62,ESE,120,0.0,8.0,96,0.00,,,0.00,Wunderground v.1.15,2013-11-21 14:00:00,
2013-11-21 07:05:00,29.1,28.1,29.63,ESE,114,0.0,8.0,96,0.00,,,0.00,Wunderground v.1.15,2013-11-21 14:05:00,
2013-11-21 07:10:00,29.0,28.0,29.63,ESE,114,0.0,8.0,96,0.00,,,0.00,Wunderground v.1.15,2013-11-21 14:10:00,
2013-11-21 07:15:00,28.8,27.8,29.63,NE,50,0.0,8.0,96,0.00,,,0.00,Wunderground v.1.15,2013-11-21 14:15:00,
2013-11-21 07:20:00,28.6,27.6,29.63,NE,55,0.0,8.0,96,0.00,,,0.00,Wunderground v.1.15,2013-11-21 14:20:00,
2013-11-21 07:25:00,28.5,27.5,29.63,East,98,0.0,8.0,96,0.00,,,0.00,Wunderground v.1.15,2013-11-21 14:25:00,
2013-11-21 07:30:00,28.3,27.3,29.64,East,96,0.0,8.0,96,0.00,,,0.00,Wunderground v.1.15,2013-11-21 14:30:00,
2013-11-21 07:35:00,28.1,27.1,29.64,East,95,0.0,8.0,96,0.00,,,0.00,Wunderground v.1.15,2013-11-21 14:35:00,
2013-11-21 07:40:00,27.9,26.9,29.65,ESE,108,0.0,8.0,96,0.00,,,0.00,Wunderground v.1.15,2013-11-21 14:40:00,
2013-11-21 07:50:00,27.7,26.7,29.65,East,83,0.0,8.0,96,0.00,,,0.00,Wunderground v.1.15,2013-11-21 14:50:00,
2013-11-21 07:55:00,27.6,26.6,29.66,ENE,76,0.0,8.0,96,0.00,,,0.00,Wunderground v.1.15,2013-11-21 14:55:00,
2013-11-21 08:05:00,27.0,25.8,29.66,ENE,73,0.0,8.0,95,0.00,,,0.00,Wunderground v.1.15,2013-11-21 15:05:00,
2013-11-21 08:10:00,26.9,25.9,29.66,East,79,0.0,8.0,96,0.00,,,0.00,Wunderground v.1.15,2013-11-21 15:10:00,
2013-11-21 08:20:00,26.4,25.2,29.67,East,95,0.0,8.0,95,0.00,,,0.00,Wunderground v.1.15,2013-11-21 15:20:00,
2013-11-21 08:25:00,26.3,25.1,29.67,ESE,107,0.0,8.0,95,0.00,,,0.00,Wunderground v.1.15,2013-11-21 15:25:00,
2013-11-21 08:30:00,26.3,25.3,29.67,NE,48,0.0,8.0,96,0.00,,,0.00,Wunderground v.1.15,2013-11-21 15:30:00,
2013-11-21 08:35:00,26.3,25.1,29.68,NE,49,0.0,8.0,95,0.00,,,0.00,Wunderground v.1.15,2013-11-21 15:35:00,
2013-11-21 08:40:00,26.1,25.1,29.68,NE,55,0.0,8.0,96,0.00,,,0.00,Wunderground v.1.15,2013-11-21 15:40:00,
2013-11-21 08:45:00,26.0,24.8,29.68,ENE,57,0.0,8.0,95,0.00,,,0.00,Wunderground v.1.15,2013-11-21 15:45:00,
2013-11-21 08:50:00,26.0,24.8,29.69,East,82,0.0,8.0,95,0.00,,,0.00,Wunderground v.1.15,2013-11-21 15:50:00,
2013-11-21 08:55:00,26.0,24.8,29.69,NE,53,0.0,8.0,95,0.00,,,0.00,Wunderground v.1.15,2013-11-21 15:55:00,
2013-11-21 09:00:00,26.0,24.8,29.69,NE,53,0.0,8.0,95,0.00,,,0.00,Wunderground v.1.15,2013-11-21 16:00:00,
2013-11-21 09:05:00,25.9,24.7,29.70,NE,53,0.0,8.0,95,0.00,,,0.00,Wunderground v.1.15,2013-11-21 16:05:00,
2013-11-21 09:10:00,25.8,24.6,29.70,NE,53,0.0,8.0,95,0.00,,,0.00,Wunderground v.1.15,2013-11-21 16:10:00,
2013-11-21 09:20:00,25.6,24.4,29.70,NE,54,0.0,8.0,95,0.00,,,0.00,Wunderground v.1.15,2013-11-21 16:20:00,
2013-11-21 09:25:00,25.5,24.3,29.70,East,85,0.0,8.0,95,0.00,,,0.00,Wunderground v.1.15,2013-11-21 16:25:00,
2013-11-21 09:35:00,25.4,24.2,29.71,ENE,69,0.0,8.0,95,0.00,,,0.00,Wunderground v.1.15,2013-11-21 16:35:00,
2013-11-21 09:45:00,25.3,24.1,29.72,East,90,0.0,8.0,95,0.00,,,0.00,Wunderground v.1.15,2013-11-21 16:45:00,
2013-11-21 09:50:00,25.2,23.7,29.72,NE,45,1.0,8.0,94,0.00,,,0.00,Wunderground v.1.15,2013-11-21 16:50:00,
2013-11-21 09:55:00,25.1,23.6,29.72,NE,49,0.0,8.0,94,0.00,,,0.00,Wunderground v.1.15,2013-11-21 16:55:00,
2013-11-21 10:05:00,24.8,23.3,29.72,ENE,57,0.0,8.0,94,0.00,,,0.00,Wunderground v.1.15,2013-11-21 17:05:00,
2013-11-21 10:10:00,24.5,23.0,29.72,ENE,63,0.0,8.0,94,0.00,,,0.00,Wunderground v.1.15,2013-11-21 17:10:00,
2013-11-21 10:15:00,24.2,22.5,29.73,East,96,1.0,1.0,93,0.00,,,0.00,Wunderground v.1.15,2013-11-21 17:15:00,
2013-11-21 10:20:00,23.8,22.3,29.73,SE,146,0.0,8.0,94,0.00,,,0.00,Wunderground v.1.15,2013-11-21 17:20:00,
2013-11-21 10:25:00,23.6,22.1,29.74,NNE,13,0.0,8.0,94,0.00,,,0.00,Wunderground v.1.15,2013-11-21 17:25:00,
2013-11-21 10:30:00,23.5,22.0,29.74,NE,38,0.0,8.0,94,0.00,,,0.00,Wunderground v.1.15,2013-11-21 17:30:00,
2013-11-21 10:35:00,23.4,21.9,29.73,ESE,109,0.0,8.0,94,0.00,,,0.00,Wunderground v.1.15,2013-11-21 17:35:00,
2013-11-21 10:40:00,23.3,21.8,29.74,ESE,117,0.0,8.0,94,0.00,,,0.00,Wunderground v.1.15,2013-11-21 17:40:00,
2013-11-21 10:45:00,23.2,21.7,29.74,ESE,105,0.0,8.0,94,0.00,,,0.00,Wunderground v.1.15,2013-11-21 17:45:00,
2013-11-21 10:50:00,23.4,21.9,29.74,ESE,114,0.0,8.0,94,0.00,,,0.00,Wunderground v.1.15,2013-11-21 17:50:00,
2013-11-21 10:55:00,23.3,21.8,29.74,ESE,109,0.0,8.0,94,0.00,,,0.00,Wunderground v.1.15,2013-11-21 17:55:00,
2013-11-21 11:00:00,23.2,21.7,29.73,ESE,105,0.0,8.0,94,0.00,,,0.00,Wunderground v.1.15,2013-11-21 18:00:00,
2013-11-21 11:05:00,23.3,21.8,29.73,ESE,105,0.0,8.0,94,0.00,,,0.00,Wunderground v.1.15,2013-11-21 18:05:00,
2013-11-21 11:10:00,23.3,21.8,29.73,ENE,75,0.0,8.0,94,0.00,,,0.00,Wunderground v.1.15,2013-11-21 18:10:00,
2013-11-21 11:15:00,23.2,21.7,29.73,East,94,1.0,8.0,94,0.00,,,0.00,Wunderground v.1.15,2013-11-21 18:15:00,
2013-11-21 11:20:00,23.1,21.6,29.74,ENE,70,1.0,1.0,94,0.00,,,0.00,Wunderground v.1.15,2013-11-21 18:20:00,
2013-11-21 11:25:00,22.8,21.3,29.74,East,84,0.0,8.0,94,0.00,,,0.00,Wunderground v.1.15,2013-11-21 18:25:00,
2013-11-21 11:30:00,22.6,21.1,29.74,East,80,0.0,8.0,94,0.00,,,0.00,Wunderground v.1.15,2013-11-21 18:30:00,
2013-11-21 11:35:00,22.5,21.0,29.74,East,80,0.0,8.0,94,0.00,,,0.00,Wunderground v.1.15,2013-11-21 18:35:00,
2013-11-21 11:40:00,22.3,20.8,29.74,ENE,78,0.0,8.0,94,0.00,,,0.00,Wunderground v.1.15,2013-11-21 18:40:00,
2013-11-21 11:45:00,22.2,20.7,29.74,East,81,0.0,8.0,94,0.00,,,0.00,Wunderground v.1.15,2013-11-21 18:45:00,
2013-11-21 11:50:00,22.2,20.7,29.74,East,87,0.0,8.0,94,0.00,,,0.00,Wunderground v.1.15,2013-11-21 18:50:00,
2013-11-21 11:55:00,22.4,20.9,29.74,ESE,106,0.0,8.0,94,0.00,,,0.00,Wunderground v.1.15,2013-11-21 18:55:00,
2013-11-21 12:05:00,22.2,20.7,29.74,ESE,118,1.0,8.0,94,0.00,,,0.00,Wunderground v.1.15,2013-11-21 19:05:00,
2013-11-21 12:15:00,22.2,20.7,29.74,ESE,121,0.0,2.0,94,0.00,,,0.00,Wunderground v.1.15,2013-11-21 19:15:00,
2013-11-21 12:20:00,22.4,20.9,29.74,ESE,119,0.0,8.0,94,0.00,,,0.00,Wunderground v.1.15,2013-11-21 19:20:00,
2013-11-21 12:25:00,22.6,21.1,29.75,ESE,119,0.0,8.0,94,0.00,,,0.00,Wunderground v.1.15,2013-11-21 19:25:00,
2013-11-21 12:30:00,22.6,21.1,29.75,ESE,117,0.0,8.0,94,0.00,,,0.00,Wunderground v.1.15,2013-11-21 19:30:00,
2013-11-21 12:35:00,22.7,21.2,29.75,ESE,119,0.0,8.0,94,0.00,,,0.00,Wunderground v.1.15,2013-11-21 19:35:00,
2013-11-21 12:40:00,22.8,21.3,29.75,ESE,122,0.0,8.0,94,0.00,,,0.00,Wunderground v.1.15,2013-11-21 19:40:00,
2013-11-21 12:50:00,22.5,21.0,29.76,ESE,116,0.0,8.0,94,0.00,,,0.00,Wunderground v.1.15,2013-11-21 19:50:00,
2013-11-21 12:55:00,22.3,20.8,29.76,ESE,116,0.0,8.0,94,0.00,,,0.00,Wunderground v.1.15,2013-11-21 19:55:00,
2013-11-21 13:00:00,22.5,21.0,29.75,ESE,116,0.0,8.0,94,0.00,,,0.00,Wunderground v.1.15,2013-11-21 20:00:00,
2013-11-21 13:10:00,22.7,21.2,29.75,ESE,115,1.0,1.0,94,0.00,,,0.00,Wunderground v.1.15,2013-11-21 20:10:00,
2013-11-21 13:15:00,22.6,21.1,29.75,ESE,121,1.0,8.0,94,0.00,,,0.00,Wunderground v.1.15,2013-11-21 20:15:00,
2013-11-21 13:20:00,22.6,21.1,29.75,SE,131,1.0,8.0,94,0.00,,,0.00,Wunderground v.1.15,2013-11-21 20:20:00,
2013-11-21 13:25:00,22.6,21.1,29.76,SE,130,1.0,8.0,94,0.00,,,0.00,Wunderground v.1.15,2013-11-21 20:25:00,
2013-11-21 13:30:00,22.6,21.1,29.76,SE,130,0.0,8.0,94,0.00,,,0.00,Wunderground v.1.15,2013-11-21 20:30:00,
2013-11-21 13:35:00,22.7,21.2,29.76,SE,124,0.0,8.0,94,0.00,,,0.00,Wunderground v.1.15,2013-11-21 20:35:00,
2013-11-21 13:40:00,22.8,21.3,29.76,ESE,123,0.0,8.0,94,0.00,,,0.00,Wunderground v.1.15,2013-11-21 20:40:00,
2013-11-21 13:45:00,23.1,21.6,29.76,ESE,123,0.0,8.0,94,0.00,,,0.00,Wunderground v.1.15,2013-11-21 20:45:00,
2013-11-21 13:50:00,23.4,21.9,29.76,ESE,123,0.0,8.0,94,0.00,,,0.00,Wunderground v.1.15,2013-11-21 20:50:00,
2013-11-21 13:55:00,22.9,21.2,29.77,SE,128,1.0,8.0,93,0.00,,,0.00,Wunderground v.1.15,2013-11-21 20:55:00,
2013-11-21 14:00:00,22.4,20.7,29.77,SE,126,2.0,2.0,93,0.00,,,0.00,Wunderground v.1.15,2013-11-21 21:00:00,
2013-11-21 14:05:00,22.2,20.7,29.77,SE,126,1.0,8.0,94,0.00,,,0.00,Wunderground v.1.15,2013-11-21 21:05:00,
2013-11-21 14:10:00,22.4,20.9,29.78,SE,124,0.0,8.0,94,0.00,,,0.00,Wunderground v.1.15,2013-11-21 21:10:00,
2013-11-21 14:15:00,22.3,20.8,29.78,ESE,123,0.0,8.0,94,0.00,,,0.00,Wunderground v.1.15,2013-11-21 21:15:00,
2013-11-21 14:20:00,22.3,20.8,29.79,ESE,123,0.0,8.0,94,0.00,,,0.00,Wunderground v.1.15,2013-11-21 21:20:00,
2013-11-21 14:25:00,22.3,20.8,29.79,ESE,123,0.0,8.0,94,0.00,,,0.00,Wunderground v.1.15,2013-11-21 21:25:00,
2013-11-21 14:30:00,22.3,20.8,29.80,ESE,123,0.0,8.0,94,0.00,,,0.00,Wunderground v.1.15,2013-11-21 21:30:00,
2013-11-21 14:35:00,22.3,20.8,29.80,ESE,123,0.0,8.0,94,0.00,,,0.00,Wunderground v.1.15,2013-11-21 21:35:00,
2013-11-21 14:40:00,22.3,20.8,29.80,ESE,123,0.0,8.0,94,0.00,,,0.00,Wunderground v.1.15,2013-11-21 21:40:00,
2013-11-21 14:45:00,22.0,20.3,29.81,ESE,122,0.0,8.0,93,0.00,,,0.00,Wunderground v.1.15,2013-11-21 21:45:00,
2013-11-21 14:50:00,21.8,20.1,29.82,ESE,121,1.0,1.0,93,0.00,,,0.00,Wunderground v.1.15,2013-11-21 21:50:00,
2013-11-21 14:55:00,21.7,20.0,29.82,ESE,121,0.0,2.0,93,0.00,,,0.00,Wunderground v.1.15,2013-11-21 21:55:00,
2013-11-21 15:00:00,21.3,19.6,29.82,ESE,122,0.0,8.0,93,0.00,,,0.00,Wunderground v.1.15,2013-11-21 22:00:00,
2013-11-21 15:05:00,21.1,19.4,29.83,SE,130,1.0,8.0,93,0.00,,,0.00,Wunderground v.1.15,2013-11-21 22:05:00,
2013-11-21 15:15:00,20.4,18.7,29.84,ESE,121,1.0,8.0,93,0.00,,,0.00,Wunderground v.1.15,2013-11-21 22:15:00,
2013-11-21 15:20:00,20.3,18.6,29.84,ESE,119,0.0,8.0,93,0.00,,,0.00,Wunderground v.1.15,2013-11-21 22:20:00,
2013-11-21 15:25:00,20.2,18.5,29.85,ESE,119,0.0,8.0,93,0.00,,,0.00,Wunderground v.1.15,2013-11-21 22:25:00,
2013-11-21 15:30:00,20.0,18.6,29.86,ESE,119,0.0,8.0,94,0.00,,,0.00,Wunderground v.1.15,2013-11-21 22:30:00,
2013-11-21 15:35:00,19.8,18.1,29.87,ESE,119,0.0,8.0,93,0.00,,,0.00,Wunderground v.1.15,2013-11-21 22:35:00,
2013-11-21 15:40:00,19.7,18.3,29.87,ESE,119,0.0,8.0,94,0.00,,,0.00,Wunderground v.1.15,2013-11-21 22:40:00,
2013-11-21 15:45:00,19.7,18.3,29.87,ESE,119,0.0,8.0,94,0.00,,,0.00,Wunderground v.1.15,2013-11-21 22:45:00,
2013-11-21 15:55:00,19.4,19.4,29.88,ESE,119,0.0,8.0,100,0.00,,,0.00,Wunderground v.1.15,2013-11-21 22:55:00,
2013-11-21 16:00:00,19.2,17.5,29.88,ESE,119,0.0,8.0,93,0.00,,,0.00,Wunderground v.1.15,2013-11-21 23:00:00,
2013-11-21 16:05:00,19.0,17.3,29.89,ESE,117,0.0,8.0,93,0.00,,,0.00,Wunderground v.1.15,2013-11-21 23:05:00,
2013-11-21 16:10:00,18.8,17.1,29.89,ESE,115,0.0,8.0,93,0.00,,,0.00,Wunderground v.1.15,2013-11-21 23:10:00,
2013-11-21 16:20:00,18.4,16.7,29.90,ESE,115,0.0,8.0,93,0.00,,,0.00,Wunderground v.1.15,2013-11-21 23:20:00,
2013-11-21 16:25:00,18.2,16.5,29.91,ESE,115,0.0,8.0,93,0.00,,,0.00,Wunderground v.1.15,2013-11-21 23:25:00,
2013-11-21 16:30:00,18.0,16.3,29.91,ESE,115,0.0,8.0,93,0.00,,,0.00,Wunderground v.1.15,2013-11-21 23:30:00,
2013-11-21 16:35:00,17.9,16.2,29.92,ESE,115,0.0,8.0,93,0.00,,,0.00,Wunderground v.1.15,2013-11-21 23:35:00,
2013-11-21 16:45:00,17.3,15.6,29.92,ESE,115,0.0,8.0,93,0.00,,,0.00,Wunderground v.1.15,2013-11-21 23:45:00,
2013-11-21 16:50:00,17.1,15.4,29.92,ESE,115,0.0,8.0,93,0.00,,,0.00,Wunderground v.1.15,2013-11-21 23:50:00,
2013-11-21 16:55:00,16.9,15.2,29.93,ESE,115,0.0,8.0,93,0.00,,,0.00,Wunderground v.1.15,2013-11-21 23:55:00,
2013-11-21 17:00:00,16.8,15.1,29.94,ESE,115,0.0,8.0,93,0.00,,,0.00,Wunderground v.1.15,2013-11-22 00:00:00,
2013-11-21 17:05:00,16.6,14.9,29.94,ESE,115,0.0,8.0,93,0.00,,,0.00,Wunderground v.1.15,2013-11-22 00:05:00,
2013-11-21 17:10:00,16.7,15.0,29.94,ESE,115,0.0,8.0,93,0.00,,,0.00,Wunderground v.1.15,2013-11-22 00:10:00,
2013-11-21 17:15:00,16.6,14.9,29.95,ESE,115,0.0,8.0,93,0.00,,,0.00,Wunderground v.1.15,2013-11-22 00:15:00,
2013-11-21 17:20:00,16.3,14.6,29.96,ESE,115,0.0,8.0,93,0.00,,,0.00,Wunderground v.1.15,2013-11-22 00:20:00,
2013-11-21 17:25:00,16.1,14.4,29.96,ESE,114,0.0,8.0,93,0.00,,,0.00,Wunderground v.1.15,2013-11-22 00:25:00,
2013-11-21 17:30:00,15.9,14.2,29.96,ESE,114,0.0,8.0,93,0.00,,,0.00,Wunderground v.1.15,2013-11-22 00:30:00,
2013-11-21 17:35:00,15.8,14.1,29.97,ESE,114,0.0,8.0,93,0.00,,,0.00,Wunderground v.1.15,2013-11-22 00:35:00,
2013-11-21 17:40:00,15.7,14.0,29.98,ESE,115,0.0,8.0,93,0.00,,,0.00,Wunderground v.1.15,2013-11-22 00:40:00,
2013-11-21 17:45:00,15.6,13.9,29.98,ESE,115,0.0,8.0,93,0.00,,,0.00,Wunderground v.1.15,2013-11-22 00:45:00,
2013-11-21 17:55:00,15.4,13.7,29.99,ESE,115,0.0,8.0,93,0.00,,,0.00,Wunderground v.1.15,2013-11-22 00:55:00,
2013-11-21 18:05:00,15.0,13.3,30.00,ESE,115,0.0,8.0,93,0.00,,,0.00,Wunderground v.1.15,2013-11-22 01:05:00,
2013-11-21 18:10:00,14.9,13.2,30.00,ESE,115,0.0,8.0,93,0.00,,,0.00,Wunderground v.1.15,2013-11-22 01:10:00,
2013-11-21 18:20:00,14.7,13.0,30.01,ESE,115,0.0,8.0,93,0.00,,,0.00,Wunderground v.1.15,2013-11-22 01:20:00,
2013-11-21 18:25:00,14.7,13.0,30.02,ESE,115,0.0,8.0,93,0.00,,,0.00,Wunderground v.1.15,2013-11-22 01:25:00,
2013-11-21 18:30:00,14.6,12.9,30.02,ESE,115,0.0,8.0,93,0.00,,,0.00,Wunderground v.1.15,2013-11-22 01:30:00,
2013-11-21 18:35:00,14.6,12.9,30.02,ESE,115,0.0,8.0,93,0.00,,,0.00,Wunderground v.1.15,2013-11-22 01:35:00,
2013-11-21 18:40:00,14.6,12.9,30.03,ESE,115,0.0,8.0,93,0.00,,,0.00,Wunderground v.1.15,2013-11-22 01:40:00,
2013-11-21 18:45:00,14.6,12.9,30.03,ESE,115,0.0,8.0,93,0.00,,,0.00,Wunderground v.1.15,2013-11-22 01:45:00,
2013-11-21 18:50:00,14.6,12.9,30.04,ESE,115,0.0,8.0,93,0.00,,,0.00,Wunderground v.1.15,2013-11-22 01:50:00,
2013-11-21 18:55:00,14.6,12.9,30.04,ESE,115,0.0,8.0,93,0.00,,,0.00,Wunderground v.1.15,2013-11-22 01:55:00,
2013-11-21 19:00:00,14.7,13.0,30.04,ESE,115,0.0,8.0,93,0.00,,,0.00,Wunderground v.1.15,2013-11-22 02:00:00,
2013-11-21 19:10:00,14.6,12.9,30.05,ESE,115,0.0,8.0,93,0.00,,,0.00,Wunderground v.1.15,2013-11-22 02:10:00,
2013-11-21 19:15:00,14.6,12.9,30.06,ESE,115,0.0,8.0,93,0.00,,,0.00,Wunderground v.1.15,2013-11-22 02:15:00,
2013-11-21 19:20:00,14.5,12.8,30.06,ESE,113,0.0,8.0,93,0.00,,,0.00,Wunderground v.1.15,2013-11-22 02:20:00,
2013-11-21 19:25:00,14.4,12.7,30.06,ESE,112,0.0,8.0,93,0.00,,,0.00,Wunderground v.1.15,2013-11-22 02:25:00,
2013-11-21 19:35:00,14.0,12.1,30.07,ESE,107,0.0,8.0,92,0.00,,,0.00,Wunderground v.1.15,2013-11-22 02:35:00,
2013-11-21 19:40:00,13.9,12.0,30.08,SE,126,0.0,8.0,92,0.00,,,0.00,Wunderground v.1.15,2013-11-22 02:40:00,
2013-11-21 19:45:00,13.9,12.0,30.08,SE,126,0.0,8.0,92,0.00,,,0.00,Wunderground v.1.15,2013-11-22 02:45:00,
2013-11-21 19:50:00,13.9,12.0,30.08,ESE,107,0.0,8.0,92,0.00,,,0.00,Wunderground v.1.15,2013-11-22 02:50:00,
2013-11-21 20:00:00,13.6,11.7,30.08,East,80,0.0,8.0,92,0.00,,,0.00,Wunderground v.1.15,2013-11-22 03:00:00,
2013-11-21 20:10:00,13.4,11.5,30.10,East,81,0.0,8.0,92,0.00,,,0.00,Wunderground v.1.15,2013-11-22 03:10:00,
2013-11-21 20:15:00,13.2,11.3,30.10,ENE,77,0.0,8.0,92,0.00,,,0.00,Wunderground v.1.15,2013-11-22 03:15:00,
2013-11-21 20:20:00,13.0,11.1,30.10,ENE,68,0.0,8.0,92,0.00,,,0.00,Wunderground v.1.15,2013-11-22 03:20:00,
2013-11-21 20:30:00,12.8,10.9,30.12,ESE,103,0.0,8.0,92,0.00,,,0.00,Wunderground v.1.15,2013-11-22 03:30:00,
2013-11-21 20:35:00,12.7,10.8,30.12,ESE,115,0.0,8.0,92,0.00,,,0.00,Wunderground v.1.15,2013-11-22 03:35:00,
2013-11-21 20:40:00,12.6,10.7,30.13,ENE,67,0.0,8.0,92,0.00,,,0.00,Wunderground v.1.15,2013-11-22 03:40:00,
2013-11-21 20:45:00,12.5,10.4,30.12,ENE,71,0.0,8.0,91,0.00,,,0.00,Wunderground v.1.15,2013-11-22 03:45:00,
2013-11-21 20:50:00,12.4,10.3,30.14,ESE,103,0.0,8.0,91,0.00,,,0.00,Wunderground v.1.15,2013-11-22 03:50:00,
2013-11-21 20:55:00,12.3,10.2,30.14,East,101,0.0,8.0,91,0.00,,,0.00,Wunderground v.1.15,2013-11-22 03:55:00,
2013-11-21 21:00:00,12.2,10.1,30.14,East,100,0.0,8.0,91,0.00,,,0.00,Wunderground v.1.15,2013-11-22 04:00:00,
2013-11-21 21:05:00,12.2,10.1,30.15,East,100,0.0,8.0,91,0.00,,,0.00,Wunderground v.1.15,2013-11-22 04:05:00,
2013-11-21 21:10:00,12.2,10.1,30.15,East,100,0.0,8.0,91,0.00,,,0.00,Wunderground v.1.15,2013-11-22 04:10:00,
2013-11-21 21:15:00,12.2,10.1,30.16,East,100,0.0,8.0,91,0.00,,,0.00,Wunderground v.1.15,2013-11-22 04:15:00,
2013-11-21 21:20:00,12.1,10.0,30.16,East,100,0.0,8.0,91,0.00,,,0.00,Wunderground v.1.15,2013-11-22 04:20:00,
2013-11-21 21:25:00,12.1,10.0,30.17,ESE,103,0.0,8.0,91,0.00,,,0.00,Wunderground v.1.15,2013-11-22 04:25:00,
2013-11-21 21:30:00,12.0,9.9,30.17,ESE,103,0.0,8.0,91,0.00,,,0.00,Wunderground v.1.15,2013-11-22 04:30:00,
2013-11-21 21:35:00,11.8,9.7,30.18,ESE,103,0.0,8.0,91,0.00,,,0.00,Wunderground v.1.15,2013-11-22 04:35:00,
2013-11-21 21:45:00,11.4,9.0,30.18,East,101,0.0,8.0,90,0.00,,,0.00,Wunderground v.1.15,2013-11-22 04:45:00,
2013-11-21 21:55:00,10.9,8.5,30.18,East,101,0.0,8.0,90,0.00,,,0.00,Wunderground v.1.15,2013-11-22 04:55:00,
2013-11-21 22:00:00,10.7,8.3,30.19,East,101,0.0,8.0,90,0.00,,,0.00,Wunderground v.1.15,2013-11-22 05:00:00,
2013-11-21 22:05:00,10.6,8.2,30.19,East,100,0.0,8.0,90,0.00,,,0.00,Wunderground v.1.15,2013-11-22 05:05:00,
2013-11-21 22:10:00,10.4,8.0,30.20,East,100,0.0,8.0,90,0.00,,,0.00,Wunderground v.1.15,2013-11-22 05:10:00,
2013-11-21 22:15:00,10.3,8.0,30.20,East,98,0.0,8.0,90,0.00,,,0.00,Wunderground v.1.15,2013-11-22 05:15:00,
2013-11-21 22:25:00,10.1,7.8,30.20,East,98,0.0,8.0,90,0.00,,,0.00,Wunderground v.1.15,2013-11-22 05:25:00,
2013-11-21 22:30:00,9.9,7.6,30.21,East,97,0.0,8.0,90,0.00,,,0.00,Wunderground v.1.15,2013-11-22 05:30:00,
2013-11-21 22:35:00,9.7,7.1,30.21,East,97,0.0,8.0,89,0.00,,,0.00,Wunderground v.1.15,2013-11-22 05:35:00,
2013-11-21 22:40:00,9.6,7.3,30.22,East,97,0.0,8.0,90,0.00,,,0.00,Wunderground v.1.15,2013-11-22 05:40:00,
2013-11-21 22:45:00,9.6,7.3,30.22,East,97,0.0,8.0,90,0.00,,,0.00,Wunderground v.1.15,2013-11-22 05:45:00,
2013-11-21 22:50:00,9.6,7.3,30.23,East,97,0.0,8.0,90,0.00,,,0.00,Wunderground v.1.15,2013-11-22 05:50:00,
2013-11-21 22:55:00,9.6,7.3,30.23,East,97,0.0,8.0,90,0.00,,,0.00,Wunderground v.1.15,2013-11-22 05:55:00,
2013-11-21 23:00:00,9.6,7.3,30.24,East,97,0.0,8.0,90,0.00,,,0.00,Wunderground v.1.15,2013-11-22 06:00:00,
2013-11-21 23:10:00,9.6,7.3,30.25,East,97,0.0,8.0,90,0.00,,,0.00,Wunderground v.1.15,2013-11-22 06:10:00,
2013-11-21 23:15:00,9.6,7.3,30.25,East,97,0.0,8.0,90,0.00,,,0.00,Wunderground v.1.15,2013-11-22 06:15:00,
2013-11-21 23:20:00,9.5,7.2,30.26,East,97,0.0,8.0,90,0.00,,,0.00,Wunderground v.1.15,2013-11-22 06:20:00,
2013-11-21 23:25:00,9.4,7.1,30.26,East,97,0.0,8.0,90,0.00,,,0.00,Wunderground v.1.15,2013-11-22 06:25:00,
2013-11-21 23:30:00,9.4,7.1,30.27,East,97,0.0,8.0,90,0.00,,,0.00,Wunderground v.1.15,2013-11-22 06:30:00,
2013-11-21 23:35:00,9.3,7.0,30.27,East,97,0.0,8.0,90,0.00,,,0.00,Wunderground v.1.15,2013-11-22 06:35:00,
2013-11-21 23:40:00,9.1,6.5,30.27,NE,46,0.0,8.0,89,0.00,,,0.00,Wunderground v.1.15,2013-11-22 06:40:00,
2013-11-21 23:45:00,9.0,6.4,30.28,NE,51,0.0,8.0,89,0.00,,,0.00,Wunderground v.1.15,2013-11-22 06:45:00,
2013-11-21 23:50:00,8.9,6.3,30.28,NE,51,0.0,8.0,89,0.00,,,0.00,Wunderground v.1.15,2013-11-22 06:50:00,
2013-11-21 23:55:00,8.9,6.6,30.29,NE,51,0.0,8.0,90,0.00,,,0.00,Wunderground v.1.15,2013-11-22 06:55:00,